createdAt,value
2022-07-31T00:01:30.982Z,1012.51
2022-07-31T00:07:50.973Z,1012.47
2022-07-31T00:14:13.980Z,1012.47
2022-07-31T00:20:33.971Z,1012.45
2022-07-31T00:26:56.980Z,1012.38
2022-07-31T00:33:16.974Z,1012.4
2022-07-31T00:39:39.978Z,1012.42
2022-07-31T00:45:59.977Z,1012.36
2022-07-31T00:52:22.972Z,1012.28
2022-07-31T00:58:42.995Z,1012.28
2022-07-31T01:05:05.971Z,1012.16
2022-07-31T01:11:26.014Z,1012.1
2022-07-31T01:17:49.003Z,1012.08
2022-07-31T01:24:08.979Z,1012.1
2022-07-31T01:30:31.973Z,1012.06
2022-07-31T01:36:51.981Z,1012.04
2022-07-31T01:43:14.982Z,1012
2022-07-31T01:49:35.027Z,1011.98
2022-07-31T01:56:03.129Z,1011.93
2022-07-31T02:02:17.981Z,1011.89
2022-07-31T02:08:40.992Z,1011.87
2022-07-31T02:15:00.979Z,1011.89
2022-07-31T02:21:24.025Z,1011.87
2022-07-31T02:27:53.551Z,1011.89
2022-07-31T02:34:06.978Z,1011.91
2022-07-31T02:40:27.010Z,1011.89
2022-07-31T02:46:49.987Z,1011.89
2022-07-31T02:53:09.975Z,1011.87
2022-07-31T02:59:33.001Z,1011.83
2022-07-31T03:05:52.983Z,1011.79
2022-07-31T03:12:16.004Z,1011.69
2022-07-31T03:18:36.017Z,1011.69
2022-07-31T03:24:58.982Z,1011.67
2022-07-31T03:31:18.975Z,1011.65
2022-07-31T03:37:41.978Z,1011.63
2022-07-31T03:44:01.986Z,1011.65
2022-07-31T03:50:24.980Z,1011.65
2022-07-31T03:56:45.491Z,1011.71
2022-07-31T04:19:33.974Z,1011.93
2022-07-31T04:25:56.989Z,1011.93
2022-07-31T04:32:16.973Z,1011.89
2022-07-31T04:38:39.976Z,1011.91
2022-07-31T04:44:59.986Z,1011.91
2022-07-31T04:51:22.977Z,1011.91
2022-07-31T04:57:42.989Z,1011.93
2022-07-31T05:04:05.981Z,1011.91
2022-07-31T05:10:25.981Z,1011.91
2022-07-31T05:16:48.991Z,1011.91
2022-07-31T05:23:08.977Z,1011.95
2022-07-31T05:29:31.986Z,1011.95
2022-07-31T05:35:51.973Z,1011.98
2022-07-31T05:42:14.992Z,1012.02
2022-07-31T05:48:34.976Z,1012.06
2022-07-31T05:54:57.979Z,1012.08
2022-07-31T06:01:18.038Z,1012.02
2022-07-31T06:07:40.984Z,1011.98
2022-07-31T06:14:00.994Z,1011.95
2022-07-31T06:20:23.980Z,1011.96
2022-07-31T06:26:43.976Z,1012
2022-07-31T06:33:08.031Z,1011.98
2022-07-31T06:39:28.039Z,1011.95
2022-07-31T06:45:51.866Z,1011.95
2022-07-31T06:52:09.986Z,1011.96
2022-07-31T06:58:32.981Z,1012.02
2022-07-31T07:04:56.666Z,1011.98
2022-07-31T07:11:15.981Z,1011.89
2022-07-31T07:17:35.980Z,1011.87
2022-07-31T07:23:58.997Z,1011.85
2022-07-31T07:30:18.977Z,1011.87
2022-07-31T07:36:41.987Z,1011.85
2022-07-31T07:43:03.255Z,1011.81
2022-07-31T07:49:25.052Z,1011.81
2022-07-31T07:55:45.206Z,1011.79
2022-07-31T08:02:07.989Z,1011.67
2022-07-31T08:08:27.994Z,1011.59
2022-07-31T08:14:50.978Z,1011.57
2022-07-31T08:21:11.063Z,1011.59
2022-07-31T08:27:38.058Z,1011.53
2022-07-31T08:33:53.976Z,1011.53
2022-07-31T08:40:16.992Z,1011.48
2022-07-31T08:46:36.977Z,1011.46
2022-07-31T08:52:59.981Z,1011.42
2022-07-31T08:59:19.995Z,1011.36
2022-07-31T09:05:43.997Z,1011.36
2022-07-31T09:12:04.002Z,1011.32
2022-07-31T09:18:26.984Z,1011.26
2022-07-31T09:24:46.992Z,1011.22
2022-07-31T09:31:09.985Z,1011.24
2022-07-31T09:37:29.981Z,1011.22
2022-07-31T09:43:52.990Z,1011.18
2022-07-31T09:50:12.978Z,1011.16
2022-07-31T09:56:35.987Z,1011.09
2022-07-31T10:14:24.967Z,1010.99
2022-07-31T10:20:47.981Z,1010.99
2022-07-31T10:27:09.284Z,1010.97
2022-07-31T10:33:45.946Z,1010.89
2022-07-31T10:39:50.988Z,1010.87
2022-07-31T10:46:13.987Z,1010.75
2022-07-31T10:52:33.970Z,1010.65
2022-07-31T10:58:56.992Z,1010.53
2022-07-31T11:05:16.987Z,1010.45
2022-07-31T11:11:40.037Z,1010.45
2022-07-31T11:18:16.309Z,1010.43
2022-07-31T11:24:24.046Z,1010.39
2022-07-31T11:30:43.985Z,1010.41
2022-07-31T11:37:07.158Z,1010.39
2022-07-31T11:43:26.993Z,1010.37
2022-07-31T11:49:50.022Z,1010.31
2022-07-31T11:56:10.221Z,1010.39
2022-07-31T12:02:33.045Z,1010.37
2022-07-31T12:08:52.978Z,1010.33
2022-07-31T12:15:15.989Z,1010.29
2022-07-31T12:21:35.977Z,1010.22
2022-07-31T12:27:58.973Z,1010.16
2022-07-31T12:34:18.983Z,1010.16
2022-07-31T12:40:41.978Z,1010.14
2022-07-31T12:47:02.239Z,1010
2022-07-31T12:53:24.983Z,1009.92
2022-07-31T12:59:44.972Z,1009.84
2022-07-31T13:06:07.991Z,1009.77
2022-07-31T13:12:27.971Z,1009.71
2022-07-31T13:18:50.987Z,1009.71
2022-07-31T13:25:10.972Z,1009.73
2022-07-31T13:31:33.975Z,1009.67
2022-07-31T13:37:54.003Z,1009.55
2022-07-31T13:44:16.984Z,1009.49
2022-07-31T13:50:36.990Z,1009.43
2022-07-31T13:56:59.973Z,1009.39
2022-07-31T14:03:19.977Z,1009.35
2022-07-31T14:09:47.073Z,1009.3
2022-07-31T14:16:02.974Z,1009.2
2022-07-31T14:22:25.991Z,1009.2
2022-07-31T14:28:45.981Z,1009.16
2022-07-31T14:35:08.981Z,1009.18
2022-07-31T14:41:28.984Z,1009.1
2022-07-31T14:47:51.978Z,1009.06
2022-07-31T14:54:11.991Z,1009.04
2022-07-31T15:00:34.996Z,1009
2022-07-31T15:07:07.463Z,1009.04
2022-07-31T15:13:18.058Z,1009.04
2022-07-31T15:19:37.980Z,1009.02
2022-07-31T15:26:00.992Z,1009.04
2022-07-31T15:32:20.983Z,1009.08
2022-07-31T15:38:43.989Z,1009.08
2022-07-31T15:45:03.976Z,1009
2022-07-31T15:51:26.984Z,1008.94
2022-07-31T15:57:46.993Z,1008.92
2022-07-31T16:14:33.486Z,1008.79
2022-07-31T16:20:52.980Z,1008.73
2022-07-31T16:27:15.986Z,1008.69
2022-07-31T16:33:35.978Z,1008.61
2022-07-31T16:39:58.985Z,1008.57
2022-07-31T16:46:18.986Z,1008.47
2022-07-31T16:52:41.976Z,1008.49
2022-07-31T16:59:01.979Z,1008.47
2022-07-31T17:05:24.983Z,1008.43
2022-07-31T17:11:45.049Z,1008.45
2022-07-31T17:18:07.994Z,1008.43
2022-07-31T17:24:27.977Z,1008.45
2022-07-31T17:30:50.982Z,1008.47
2022-07-31T17:37:10.985Z,1008.51
2022-07-31T17:43:39.280Z,1008.53
2022-07-31T17:49:53.986Z,1008.59
2022-07-31T17:56:17.013Z,1008.67
2022-07-31T18:02:37.040Z,1008.71
2022-07-31T18:09:02.425Z,1008.75
2022-07-31T18:15:21.979Z,1008.79
2022-07-31T18:21:44.997Z,1008.84
2022-07-31T18:28:04.973Z,1008.86
2022-07-31T18:34:27.985Z,1008.96
2022-07-31T18:40:47.989Z,1008.96
2022-07-31T18:47:10.983Z,1009.04
2022-07-31T18:53:30.983Z,1009.06
2022-07-31T18:59:53.985Z,1009.12
2022-07-31T19:06:14.283Z,1009.1
2022-07-31T19:12:36.980Z,1009.1
2022-07-31T19:18:56.980Z,1009.14
2022-07-31T19:25:19.983Z,1009.2
2022-07-31T19:31:39.976Z,1009.28
2022-07-31T19:38:02.989Z,1009.31
2022-07-31T19:44:22.969Z,1009.39
2022-07-31T19:50:45.981Z,1009.39
2022-07-31T19:57:05.981Z,1009.49
2022-07-31T20:03:29.051Z,1009.55
2022-07-31T20:09:48.971Z,1009.61
2022-07-31T20:16:11.974Z,1009.71
2022-07-31T20:22:31.980Z,1009.73
2022-07-31T20:28:54.971Z,1009.77
2022-07-31T20:35:29.350Z,1009.78
2022-07-31T20:41:37.981Z,1009.86
2022-07-31T20:47:57.965Z,1009.92
2022-07-31T20:54:20.982Z,1009.9
2022-07-31T21:00:40.968Z,1009.92
2022-07-31T21:07:03.976Z,1009.98
2022-07-31T21:13:23.989Z,1009.96
2022-07-31T21:19:46.976Z,1010
2022-07-31T21:26:07.002Z,1010.06
2022-07-31T21:32:29.972Z,1010.06
2022-07-31T21:38:49.966Z,1010.04
2022-07-31T22:20:02.053Z,1010.43
2022-07-31T22:26:21.979Z,1010.43
2022-07-31T22:32:44.971Z,1010.43
2022-07-31T22:39:04.969Z,1010.49
2022-07-31T22:45:27.982Z,1010.49
2022-07-31T22:51:47.977Z,1010.53
2022-07-31T22:58:10.976Z,1010.51
2022-07-31T23:04:30.997Z,1010.63
2022-07-31T23:10:53.984Z,1010.65
2022-07-31T23:17:22.542Z,1010.65
2022-07-31T23:23:36.974Z,1010.69
2022-07-31T23:29:56.985Z,1010.73
2022-07-31T23:36:19.974Z,1010.71
2022-07-31T23:42:39.974Z,1010.71
2022-07-31T23:49:03.012Z,1010.67
2022-07-31T23:55:22.996Z,1010.67
